Terminal Aerodrome Forecast
Issued by NWS

Home | Current Version | Previous Version | Text Only | Print | Product List | Glossary On
Versions: 1 2 3 4 5 6 7 8 9 10 11 12 13 14 15 16 17 18 19 20
000
FTUS43 KGRB 202300
TAFAUW
TAF
KAUW 202340Z 2100/2124 17006KT P6SM OVC020
     FM210300 16004KT 5SM BR OVC012
     FM210700 16005KT 4SM -FZDZ BR OVC009
      TEMPO 2109/2113 2SM -FZDZ BR OVC004
     FM211500 14007KT 5SM -FZDZSN BR OVC008
     FM211900 15010KT 4SM -DZSN BR OVC012=

USA.gov is the U.S. government's official web portal to all federal, state and local government web resources and services.